Time;durP1;ratioP1;P1;durP2;ratioP2;P2;SDS_P1;SDS_P2;PMS_P1;PMS_P2;Temp;Humidity;BMP_temperature;BMP_pressure;BME280_temperature;BME280_humidity;BME280_pressure;Samples;Min_cycle;Max_cycle;Signal;HPM_P1;HPM_P2
2021/05/06 00:14:32;;;;;;;6.40;2.60;;;;;;;10.46;50.25;100642.84;1739357;82;21030;-69
2021/05/06 00:33:08;;;;;;;4.25;2.52;;;;;;;10.30;51.56;100631.11;1739463;82;21503;-68
2021/05/06 00:35:37;;;;;;;5.35;3.35;;;;;;;10.28;51.87;100635.56;1739448;82;20927;-69
2021/05/06 00:38:11;;;;;;;6.40;3.52;;;;;;;10.25;52.04;100634.41;1739317;82;23528;-68
2021/05/06 00:41:05;;;;;;;5.03;3.22;;;;;;;10.22;52.29;100633.30;1739237;82;20995;-68
2021/05/06 00:59:52;;;;;;;11.40;8.38;;;;;;;9.85;55.04;100618.38;1739388;82;20967;-71
2021/05/06 01:04:55;;;;;;;19.85;9.63;;;;;;;9.74;55.30;100613.77;1739362;82;22342;-71
2021/05/06 01:12:42;;;;;;;16.65;8.43;;;;;;;9.58;55.61;100618.16;1739371;82;21002;-70
2021/05/06 01:15:11;;;;;;;16.07;7.20;;;;;;;9.52;55.75;100613.66;1720712;81;21445;-70
2021/05/06 01:17:39;;;;;;;11.20;6.75;;;;;;;9.49;55.81;100616.45;1739365;82;21432;-70
2021/05/06 01:20:08;;;;;;;16.00;7.75;;;;;;;9.46;55.96;100619.23;1739299;82;21050;-69
2021/05/06 01:22:36;;;;;;;20.20;7.87;;;;;;;9.45;56.10;100616.69;1739422;81;20939;-68
2021/05/06 01:25:06;;;;;;;14.13;7.35;;;;;;;9.41;56.17;100619.12;1720358;82;21516;-70
2021/05/06 01:27:46;;;;;;;15.32;7.05;;;;;;;9.38;56.30;100614.88;1739348;82;20947;-70
2021/05/06 01:30:25;;;;;;;10.90;6.80;;;;;;;9.34;56.46;100622.54;1739400;82;21213;-69
2021/05/06 01:32:48;;;;;;;17.35;8.13;;;;;;;9.31;56.49;100632.68;1738336;82;20958;-71
2021/05/06 01:41:13;;;;;;;24.52;10.18;;;;;;;9.26;56.55;100627.34;1853018;77;20973;-69
2021/05/06 02:00:24;;;;;;;23.57;10.00;;;;;;;9.18;56.18;100623.84;1816068;77;23101;-70
2021/05/06 02:02:50;;;;;;;26.48;10.80;;;;;;;9.13;56.24;100624.06;1789053;80;20958;-71
2021/05/06 02:05:19;;;;;;;27.65;11.53;;;;;;;9.12;56.27;100626.78;1758329;80;21307;-69
2021/05/06 02:07:48;;;;;;;19.92;11.48;;;;;;;9.10;56.26;100624.70;1789045;80;20942;-69
2021/05/06 02:10:22;;;;;;;31.42;12.20;;;;;;;9.09;56.33;100626.48;1789153;80;20926;-71
2021/05/06 02:12:52;;;;;;;26.23;13.08;;;;;;;9.07;56.30;100620.93;1789095;80;20923;-69
2021/05/06 02:15:27;;;;;;;26.02;12.23;;;;;;;9.02;56.32;100614.64;1789116;80;20942;-69
2021/05/06 02:17:55;;;;;;;31.37;11.75;;;;;;;9.04;56.34;100620.64;1789058;80;21655;-69
2021/05/06 02:20:24;;;;;;;27.15;14.28;;;;;;;9.03;56.40;100623.35;1789081;80;20961;-71
2021/05/06 02:22:54;;;;;;;31.33;13.18;;;;;;;9.01;56.47;100631.27;1789197;80;20994;-67
2021/05/06 02:25:22;;;;;;;23.35;11.68;;;;;;;9.00;56.44;100639.19;1789087;80;21360;-68
2021/05/06 02:27:52;;;;;;;30.23;12.93;;;;;;;8.98;56.46;100635.81;1789197;80;21383;-68
2021/05/06 02:30:20;;;;;;;34.23;13.93;;;;;;;8.95;56.55;100634.67;1789090;79;21439;-68
2021/05/06 02:32:48;;;;;;;29.05;13.28;;;;;;;8.94;56.53;100640.37;1789083;79;21514;-68
2021/05/06 02:35:17;;;;;;;31.57;13.38;;;;;;;8.92;56.54;100643.06;1789020;79;21001;-67
2021/05/06 02:37:46;;;;;;;30.20;12.78;;;;;;;8.92;56.46;100641.76;1789108;80;21439;-69
2021/05/06 02:40:15;;;;;;;27.35;12.35;;;;;;;8.92;56.43;100638.30;1789061;80;21452;-67
2021/05/06 02:42:43;;;;;;;27.55;12.23;;;;;;;8.92;56.42;100643.53;1789078;79;21364;-68
2021/05/06 02:45:11;;;;;;;24.10;12.15;;;;;;;8.92;56.34;100643.06;1789039;79;21368;-68
2021/05/06 02:47:40;;;;;;;25.90;11.53;;;;;;;8.95;56.22;100636.82;1789133;80;21499;-68
2021/05/06 02:50:14;;;;;;;23.00;11.60;;;;;;;8.97;56.06;100634.97;1789029;80;20946;-70
2021/05/06 02:52:48;;;;;;;23.02;11.48;;;;;;;9.00;55.89;100638.72;1789099;79;20926;-68
2021/05/06 02:55:25;;;;;;;18.12;10.45;;;;;;;9.03;55.84;100636.44;1788329;79;21335;-67
2021/05/06 02:58:39;;;;;;;22.02;10.85;;;;;;;9.06;55.69;100637.09;1787242;80;20962;-69
2021/05/06 03:03:06;;;;;;;19.77;9.15;;;;;;;9.13;55.48;100633.69;1775398;80;21006;-70
2021/05/06 03:05:37;;;;;;;18.73;8.85;;;;;;;9.16;55.37;100630.92;1775631;79;21119;-69
2021/05/06 03:22:39;;;;;;;20.88;9.50;;;;;;;9.48;54.84;100612.14;1775039;80;21338;-68
2021/05/06 03:23:57;;;;;;;14.78;7.97;;;;;;;9.64;54.68;100606.05;1771861;80;21009;-67
2021/05/06 03:26:27;;;;;;;22.35;9.13;;;;;;;9.78;54.36;100608.71;1774907;79;20958;-69
2021/05/06 03:29:06;;;;;;;18.23;9.73;;;;;;;9.92;54.08;100602.71;1774923;80;21021;-69
2021/05/06 03:42:50;;;;;;;22.82;8.53;;;;;;;10.53;53.32;100608.29;1772459;80;21002;-67
2021/05/06 04:03:09;;;;;;;18.07;9.53;;;;;;;10.81;52.63;100608.42;1774905;80;21033;-68
2021/05/06 04:25:37;;;;;;;21.73;9.95;;;;;;;14.88;43.51;100578.78;1774983;80;21002;-68
2021/05/06 04:38:51;;;;;;;27.62;11.55;;;;;;;16.03;40.56;100585.80;1774797;80;20962;-68
2021/05/06 04:55:25;;;;;;;33.95;17.00;;;;;;;17.64;36.79;100593.05;1774798;80;22386;-68
2021/05/06 05:05:46;;;;;;;43.33;18.27;;;;;;;18.22;35.84;100604.16;1774876;79;21551;-70
2021/05/06 05:08:17;;;;;;;36.35;18.12;;;;;;;18.22;36.07;100600.18;1774758;80;21333;-68
2021/05/06 05:13:48;;;;;;;39.42;15.88;;;;;;;18.54;36.17;100597.19;1774867;80;20918;-69
2021/05/06 05:24:25;;;;;;;19.95;10.30;;;;;;;19.25;35.22;100593.11;1774773;79;21018;-71
2021/05/06 05:26:45;;;;;;;20.00;9.50;;;;;;;19.50;35.68;100590.70;1773180;80;21452;-68
2021/05/06 05:29:13;;;;;;;18.62;9.48;;;;;;;19.78;34.99;100587.52;1774723;80;20935;-67
2021/05/06 05:31:41;;;;;;;18.60;8.10;;;;;;;20.04;34.39;100591.58;1774977;80;21341;-69
2021/05/06 05:36:52;;;;;;;12.65;6.78;;;;;;;20.49;34.55;100584.72;1774748;79;20950;-67
2021/05/06 05:39:32;;;;;;;14.05;6.45;;;;;;;20.82;33.61;100580.94;1774782;80;20915;-68
2021/05/06 05:42:12;;;;;;;10.95;5.17;;;;;;;21.16;33.41;100578.72;1773831;80;20903;-67
2021/05/06 05:48:05;;;;;;;19.12;6.87;;;;;;;21.78;32.04;100561.52;1774799;80;21805;-70
2021/05/06 05:55:33;;;;;;;11.05;4.83;;;;;;;22.10;31.28;100560.18;1774720;80;21328;-68
2021/05/06 05:58:00;;;;;;;9.15;5.08;;;;;;;21.89;31.38;100547.33;1774840;80;21503;-69
2021/05/06 06:00:29;;;;;;;14.45;6.40;;;;;;;21.78;31.59;100542.33;1774811;80;21515;-69
2021/05/06 06:02:58;;;;;;;13.13;5.30;;;;;;;21.83;31.25;100540.02;1774849;79;21536;-69
2021/05/06 06:05:26;;;;;;;14.20;5.83;;;;;;;21.86;31.22;100542.84;1775520;80;20983;-70
2021/05/06 06:07:54;;;;;;;13.62;5.45;;;;;;;21.91;31.55;100542.66;1774867;80;21635;-68
2021/05/06 06:10:22;;;;;;;9.83;4.78;;;;;;;22.02;31.17;100543.33;1774670;80;21468;-69
2021/05/06 06:12:53;;;;;;;17.35;6.90;;;;;;;22.10;31.36;100544.16;1774861;80;21244;-66
2021/05/06 06:18:59;;;;;;;14.87;4.92;;;;;;;21.89;31.23;100539.83;1774793;80;20931;-67
2021/05/06 06:20:56;;;;;;;14.30;4.10;;;;;;;21.72;31.31;100536.31;1751988;79;20931;-66
2021/05/06 06:23:19;;;;;;;10.88;4.37;;;;;;;21.50;31.42;100548.51;1774179;80;20942;-67
2021/05/06 06:25:48;;;;;;;15.83;4.80;;;;;;;21.53;31.75;100540.98;1774784;80;22383;-68
2021/05/06 06:28:16;;;;;;;9.53;4.33;;;;;;;21.75;31.78;100539.18;1774731;79;21017;-67
2021/05/06 06:30:44;;;;;;;10.53;4.05;;;;;;;22.00;31.32;100522.13;1774821;80;21033;-66
2021/05/06 06:33:12;;;;;;;8.45;3.90;;;;;;;22.26;31.02;100531.81;1774729;80;20942;-70
2021/05/06 06:35:40;;;;;;;14.23;4.70;;;;;;;22.40;30.90;100533.76;1774796;80;21006;-69
2021/05/06 06:38:09;;;;;;;14.13;4.67;;;;;;;22.56;30.70;100533.70;1774801;80;21843;-69
2021/05/06 06:40:38;;;;;;;12.10;4.28;;;;;;;22.80;30.56;100526.59;1774503;80;21029;-68
2021/05/06 06:43:07;;;;;;;10.00;4.35;;;;;;;23.20;30.25;100530.61;1774838;80;20915;-69
2021/05/06 06:45:36;;;;;;;12.53;3.52;;;;;;;23.58;29.40;100524.30;1774804;80;20998;-68
2021/05/06 06:48:06;;;;;;;12.45;4.37;;;;;;;23.82;29.13;100518.97;1774906;80;21072;-69
2021/05/06 06:50:34;;;;;;;6.58;4.75;;;;;;;23.96;28.85;100527.02;1774913;80;22690;-70
2021/05/06 06:53:03;;;;;;;15.88;4.75;;;;;;;24.16;28.36;100533.19;1774939;80;21357;-70
2021/05/06 06:55:31;;;;;;;8.23;4.12;;;;;;;24.30;28.46;100528.37;1774894;79;20955;-67
2021/05/06 06:58:14;;;;;;;8.35;2.62;;;;;;;24.52;28.35;100527.98;1774891;80;20922;-70
2021/05/06 07:00:43;;;;;;;5.78;2.17;;;;;;;24.71;27.62;100523.89;1775099;79;20902;-67
2021/05/06 07:03:12;;;;;;;9.15;2.55;;;;;;;24.87;26.85;100533.56;1775513;80;21367;-67
2021/05/06 07:05:41;;;;;;;7.72;2.00;;;;;;;24.83;26.63;100534.95;1775380;79;21357;-68
2021/05/06 07:08:21;;;;;;;5.10;1.55;;;;;;;24.79;27.07;100534.52;1775411;80;20907;-68
2021/05/06 07:10:52;;;;;;;7.65;2.08;;;;;;;24.76;26.74;100528.69;1775427;80;21519;-68
2021/05/06 07:13:20;;;;;;;4.75;1.57;;;;;;;24.73;26.63;100522.37;1775610;80;21472;-66
2021/05/06 07:15:50;;;;;;;6.80;1.62;;;;;;;24.57;26.77;100520.20;1775457;80;21374;-66
2021/05/06 07:18:18;;;;;;;7.20;2.62;;;;;;;24.55;26.75;100523.58;1775392;80;20978;-67
2021/05/06 07:20:48;;;;;;;12.80;3.08;;;;;;;24.68;26.75;100520.73;1775359;80;21577;-68
2021/05/06 07:23:18;;;;;;;3.67;1.60;;;;;;;24.71;26.65;100513.67;1775403;80;21010;-68
2021/05/06 07:25:50;;;;;;;8.65;1.87;;;;;;;24.73;26.49;100527.73;1775401;80;20947;-68
2021/05/06 07:28:22;;;;;;;2.90;1.85;;;;;;;24.52;26.88;100531.16;1775508;80;21356;-69
2021/05/06 07:30:51;;;;;;;12.63;2.33;;;;;;;24.38;27.28;100532.80;1775435;79;20943;-70
2021/05/06 07:33:21;;;;;;;5.87;1.60;;;;;;;24.43;26.99;100528.22;1775264;80;20907;-67
2021/05/06 07:35:51;;;;;;;8.78;2.45;;;;;;;24.51;26.51;100521.46;1775416;80;20934;-68
2021/05/06 07:38:21;;;;;;;3.20;1.60;;;;;;;24.39;26.72;100527.26;1775467;79;20927;-67
2021/05/06 07:40:51;;;;;;;3.58;1.92;;;;;;;24.38;27.34;100517.53;1775536;80;22067;-68
2021/05/06 07:43:22;;;;;;;2.35;1.32;;;;;;;24.60;27.89;100516.31;1775284;80;20962;-67
2021/05/06 07:45:53;;;;;;;4.28;1.60;;;;;;;24.97;26.84;100509.97;1775515;80;20947;-68
2021/05/06 07:48:23;;;;;;;2.85;1.70;;;;;;;25.37;26.79;100513.62;1775418;79;21408;-67
2021/05/06 07:50:54;;;;;;;3.15;1.80;;;;;;;25.73;26.34;100514.05;1775488;79;20922;-69
2021/05/06 07:53:26;;;;;;;4.12;2.67;;;;;;;25.94;25.75;100511.84;1775362;79;21137;-68
2021/05/06 07:55:57;;;;;;;2.77;1.57;;;;;;;26.03;26.01;100507.98;1775611;80;21002;-68
2021/05/06 07:58:25;;;;;;;5.30;1.70;;;;;;;26.26;25.57;100504.52;1775341;80;20994;-68
2021/05/06 08:00:53;;;;;;;7.87;1.50;;;;;;;26.54;25.33;100496.07;1775312;79;20935;-69
2021/05/06 08:03:21;;;;;;;19.35;4.67;;;;;;;26.90;25.46;100493.12;1775555;80;21306;-69
2021/05/06 08:05:51;;;;;;;9.43;2.10;;;;;;;27.24;25.58;100490.87;1775491;80;21484;-69
2021/05/06 08:08:19;;;;;;;13.88;1.80;;;;;;;27.50;24.39;100485.18;1775344;80;20962;-70
2021/05/06 08:10:47;;;;;;;4.25;1.15;;;;;;;27.53;24.03;100475.36;1775426;79;20998;-68
2021/05/06 08:13:16;;;;;;;9.25;2.50;;;;;;;27.68;25.48;100477.33;1775360;79;21421;-67
2021/05/06 08:15:46;;;;;;;1.87;1.12;;;;;;;27.89;23.48;100475.47;1775455;79;21014;-68
2021/05/06 08:18:14;;;;;;;4.50;1.50;;;;;;;27.88;22.92;100475.14;1775505;80;21387;-69
2021/05/06 08:20:42;;;;;;;3.30;1.72;;;;;;;27.74;22.97;100465.39;1775280;80;20955;-68
2021/05/06 08:23:13;;;;;;;3.98;1.27;;;;;;;27.63;23.35;100475.75;1775392;79;20959;-69
2021/05/06 08:25:41;;;;;;;4.22;1.40;;;;;;;27.71;23.30;100478.77;1775462;80;21369;-67
2021/05/06 08:28:09;;;;;;;10.15;2.65;;;;;;;27.87;23.12;100470.80;1775404;80;21018;-67
2021/05/06 08:30:37;;;;;;;7.65;1.40;;;;;;;27.94;21.98;100478.35;1775402;80;21199;-68
2021/05/06 08:33:07;;;;;;;18.52;2.50;;;;;;;27.84;22.77;100483.33;1775304;80;21034;-69
2021/05/06 08:35:35;;;;;;;4.05;1.75;;;;;;;27.84;23.12;100486.88;1775481;80;21472;-67
2021/05/06 08:38:03;;;;;;;5.08;1.77;;;;;;;27.97;23.03;100486.53;1775411;80;20918;-69
2021/05/06 08:40:32;;;;;;;3.33;1.75;;;;;;;28.03;22.66;100485.70;1775329;80;21495;-67
2021/05/06 08:43:06;;;;;;;5.28;1.80;;;;;;;28.09;21.98;100473.55;1774682;80;21874;-67
2021/05/06 08:45:35;;;;;;;6.78;1.52;;;;;;;28.01;22.18;100485.08;1775317;80;21500;-68
2021/05/06 08:48:04;;;;;;;4.58;1.25;;;;;;;27.98;22.54;100474.20;1775468;80;20958;-69
2021/05/06 08:50:33;;;;;;;7.53;2.60;;;;;;;28.01;22.37;100479.16;1775480;80;21364;-70
2021/05/06 08:53:01;;;;;;;5.42;2.15;;;;;;;28.00;22.45;100480.74;1775365;79;20926;-69
2021/05/06 08:55:31;;;;;;;5.78;2.15;;;;;;;28.08;22.58;100481.84;1775388;79;21352;-69
2021/05/06 08:57:58;;;;;;;6.58;2.40;;;;;;;28.25;22.75;100486.28;1775361;80;21001;-69
2021/05/06 09:00:27;;;;;;;4.75;2.80;;;;;;;28.37;22.10;100483.25;1775203;79;21141;-70
2021/05/06 09:02:56;;;;;;;3.27;1.90;;;;;;;28.38;22.62;100482.72;1774796;79;20958;-69
2021/05/06 09:05:25;;;;;;;7.12;2.83;;;;;;;28.55;21.94;100487.13;1774823;80;21021;-70
2021/05/06 09:07:53;;;;;;;4.92;1.60;;;;;;;28.65;21.16;100475.38;1774836;80;21850;-69
2021/05/06 09:10:36;;;;;;;4.58;1.95;;;;;;;28.60;21.31;100471.14;1774909;80;20931;-71
2021/05/06 09:13:27;;;;;;;10.68;1.87;;;;;;;28.61;21.02;100464.70;1774866;79;20982;-70
2021/05/06 09:15:55;;;;;;;10.40;2.30;;;;;;;28.65;20.96;100474.02;1774859;80;21033;-70
2021/05/06 09:18:44;;;;;;;5.58;1.72;;;;;;;28.72;21.24;100455.92;1774820;80;20931;-71
2021/05/06 09:21:32;;;;;;;3.75;1.25;;;;;;;28.84;21.14;100450.69;1774837;80;21415;-71
2021/05/06 09:24:26;;;;;;;8.03;3.27;;;;;;;28.98;21.93;100458.17;1774824;80;21506;-70
2021/05/06 09:26:57;;;;;;;4.40;1.82;;;;;;;29.11;20.72;100444.61;1774933;79;20951;-70
2021/05/06 09:29:46;;;;;;;7.50;1.40;;;;;;;29.11;20.79;100448.14;1774534;80;21041;-69
2021/05/06 09:32:19;;;;;;;6.30;1.25;;;;;;;29.15;20.26;100444.48;1774497;80;20934;-71
2021/05/06 09:34:53;;;;;;;4.97;1.25;;;;;;;28.98;20.51;100451.42;1774791;80;21363;-71
2021/05/06 09:37:31;;;;;;;4.83;1.43;;;;;;;28.87;20.94;100445.66;1774977;80;20955;-71
2021/05/06 09:40:06;;;;;;;5.62;1.02;;;;;;;28.73;21.10;100443.56;1774769;80;20951;-70
2021/05/06 09:42:45;;;;;;;4.75;1.37;;;;;;;28.69;21.19;100442.86;1774711;80;21467;-70
2021/05/06 09:45:27;;;;;;;3.00;1.45;;;;;;;28.74;21.66;100441.69;1774798;80;21356;-70
2021/05/06 09:48:10;;;;;;;6.17;1.00;;;;;;;28.95;21.05;100447.30;1774745;80;22216;-72
2021/05/06 09:50:40;;;;;;;7.35;1.40;;;;;;;29.11;20.80;100440.03;1774959;80;21077;-71
2021/05/06 09:53:17;;;;;;;3.08;1.20;;;;;;;29.18;20.43;100433.23;1775097;79;21469;-71
2021/05/06 09:55:46;;;;;;;6.97;1.47;;;;;;;29.27;20.09;100433.80;1775258;80;21480;-69
2021/05/06 09:58:30;;;;;;;6.30;1.35;;;;;;;29.30;20.27;100427.94;1776302;79;21050;-67
2021/05/06 10:01:10;;;;;;;4.53;2.65;;;;;;;29.32;20.48;100428.55;1778907;80;22328;-68
2021/05/06 10:03:38;;;;;;;5.83;1.47;;;;;;;29.46;20.43;100412.55;1789324;80;20962;-69
2021/05/06 10:06:19;;;;;;;4.85;0.90;;;;;;;29.74;20.20;100414.78;1788601;80;21436;-67
2021/05/06 10:08:47;;;;;;;3.92;1.67;;;;;;;29.95;20.22;100420.30;1788513;80;21033;-67
2021/05/06 10:11:18;;;;;;;3.80;1.27;;;;;;;29.89;20.16;100413.61;1788572;79;20930;-69
2021/05/06 10:13:48;;;;;;;1.22;1.05;;;;;;;29.68;20.71;100415.70;1788659;80;22124;-68
2021/05/06 10:16:17;;;;;;;6.50;1.15;;;;;;;29.50;20.58;100411.55;1788594;79;20993;-69
2021/05/06 10:18:45;;;;;;;2.77;1.00;;;;;;;29.49;20.39;100418.84;1788541;79;20998;-68
2021/05/06 10:21:19;;;;;;;4.95;1.10;;;;;;;29.37;20.73;100408.47;1788675;80;21854;-67
2021/05/06 10:23:50;;;;;;;4.72;1.35;;;;;;;29.18;20.85;100408.92;1757065;81;21042;-67
2021/05/06 10:26:19;;;;;;;4.12;1.50;;;;;;;29.04;20.81;100401.42;1721088;82;21367;-68
2021/05/06 10:28:51;;;;;;;7.85;1.87;;;;;;;28.86;20.99;100400.83;1720992;82;21021;-69
2021/05/06 10:31:19;;;;;;;1.70;0.57;;;;;;;28.51;21.45;100392.31;1721134;82;20990;-75
2021/05/06 10:33:47;;;;;;;6.47;1.27;;;;;;;28.21;21.83;100394.70;1721095;82;20974;-77
2021/05/06 10:36:18;;;;;;;4.45;0.72;;;;;;;27.95;22.20;100392.42;1721110;82;21133;-74
2021/05/06 10:38:46;;;;;;;1.07;0.98;;;;;;;27.81;22.60;100386.17;1721103;82;21646;-74
2021/05/06 10:41:31;;;;;;;1.77;0.90;;;;;;;27.78;22.34;100395.22;1721012;82;21077;-75
2021/05/06 10:44:05;;;;;;;8.38;1.75;;;;;;;27.75;21.80;100396.48;1721158;82;21507;-75
2021/05/06 10:46:57;;;;;;;5.53;0.90;;;;;;;27.53;21.09;100395.06;1721041;82;20938;-76
2021/05/06 10:49:42;;;;;;;;;;;;;;;27.19;21.16;100392.85;1724078;82;21574;-70
2021/05/06 10:52:11;;;;;;;1.83;0.80;;;;;;;26.90;21.59;100398.11;1721782;83;21371;-70
2021/05/06 10:54:53;;;;;;;2.37;0.68;;;;;;;26.76;22.58;100398.09;1751446;81;20920;-69
2021/05/06 10:57:31;;;;;;;1.17;0.62;;;;;;;26.78;22.21;100391.98;1721497;83;20990;-69
2021/05/06 10:59:59;;;;;;;2.52;0.62;;;;;;;26.87;22.25;100384.55;1751439;82;21457;-68
2021/05/06 11:02:47;;;;;;;1.77;0.80;;;;;;;26.86;22.04;100385.08;1712599;82;20999;-67
2021/05/06 11:05:23;;;;;;;2.77;1.10;;;;;;;26.76;22.29;100374.39;1774904;79;21183;-68
2021/05/06 11:08:09;;;;;;;6.50;3.37;;;;;;;26.56;22.36;100368.45;1774901;80;21607;-68
2021/05/06 11:10:49;;;;;;;4.80;2.52;;;;;;;26.55;22.84;100380.75;1774904;80;21006;-69
2021/05/06 11:13:26;;;;;;;3.92;1.25;;;;;;;26.67;22.80;100369.72;1774886;80;20991;-68
2021/05/06 11:16:16;;;;;;;4.72;1.20;;;;;;;26.94;22.64;100366.55;1774925;80;21054;-70
2021/05/06 11:18:48;;;;;;;2.75;0.93;;;;;;;27.18;22.73;100361.07;1707899;83;21341;-69
2021/05/06 11:21:34;;;;;;;3.33;1.07;;;;;;;27.38;23.58;100369.69;1708066;83;21022;-69
2021/05/06 11:24:26;;;;;;;7.37;0.82;;;;;;;27.59;23.13;100363.23;1708144;83;20939;-70
2021/05/06 11:27:10;;;;;;;5.17;0.90;;;;;;;27.69;23.26;100355.55;1708019;83;21030;-69
2021/05/06 11:29:41;;;;;;;4.22;0.80;;;;;;;27.59;22.92;100358.69;1708146;81;21053;-68
2021/05/06 11:32:26;;;;;;;3.33;1.45;;;;;;;27.28;22.59;100360.70;1708397;83;22133;-69
2021/05/06 11:34:55;;;;;;;1.27;1.07;;;;;;;26.86;22.50;100349.27;1707223;82;21520;-69
2021/05/06 11:37:27;;;;;;;1.50;0.60;;;;;;;26.49;23.01;100360.86;1708217;83;21553;-71
2021/05/06 11:40:07;;;;;;;3.95;1.10;;;;;;;26.18;23.32;100354.12;1707970;83;21038;-69
2021/05/06 11:42:48;;;;;;;1.70;1.50;;;;;;;25.90;24.07;100348.86;1845942;76;22285;-70
2021/05/06 11:45:28;;;;;;;6.17;1.42;;;;;;;25.76;25.20;100351.94;1818095;78;21388;-69
2021/05/06 11:47:57;;;;;;;6.25;1.52;;;;;;;25.76;24.65;100348.43;1817993;77;21353;-68
2021/05/06 11:50:29;;;;;;;3.08;1.05;;;;;;;25.65;24.82;100341.23;1817969;79;20962;-67
2021/05/06 11:52:59;;;;;;;4.30;0.80;;;;;;;25.53;24.85;100342.00;1818002;78;20934;-68
2021/05/06 11:55:31;;;;;;;7.53;1.12;;;;;;;25.44;25.38;100339.98;1817966;78;20974;-73
2021/05/06 11:58:00;;;;;;;2.62;0.68;;;;;;;25.39;25.72;100332.52;1818136;79;21492;-72
2021/05/06 12:00:29;;;;;;;6.15;0.98;;;;;;;25.33;25.55;100336.50;1818116;79;22292;-71
2021/05/06 12:03:10;;;;;;;3.42;1.02;;;;;;;25.18;25.62;100333.88;1818001;79;21456;-75
2021/05/06 12:05:57;;;;;;;4.03;1.22;;;;;;;24.94;25.93;100332.44;1818033;77;21017;-74
2021/05/06 12:08:34;;;;;;;3.35;0.93;;;;;;;24.74;26.41;100333.08;1817995;78;20998;-77
2021/05/06 12:11:04;;;;;;;3.33;1.12;;;;;;;24.64;27.38;100328.56;1818099;79;21002;-76
2021/05/06 12:13:35;;;;;;;2.75;1.12;;;;;;;24.60;27.83;100315.21;1818015;78;21100;-72
2021/05/06 12:16:23;;;;;;;4.12;1.00;;;;;;;24.54;28.36;100318.13;1817983;78;20914;-74
2021/05/06 12:19:02;;;;;;;2.40;1.25;;;;;;;24.47;28.16;100319.89;1818025;77;20907;-75
2021/05/06 12:21:41;;;;;;;2.17;0.95;;;;;;;24.34;27.48;100312.53;1817898;77;20931;-74
2021/05/06 12:24:11;;;;;;;5.40;1.45;;;;;;;24.20;27.92;100311.56;1817990;78;20978;-74
2021/05/06 12:26:41;;;;;;;5.65;1.35;;;;;;;24.12;28.75;100310.84;1818128;79;21355;-74
2021/05/06 12:35:29;;;;;;;5.60;1.47;;;;;;;23.81;28.94;100321.27;1744672;80;21423;-74
2021/05/06 12:37:59;;;;;;;5.30;1.30;;;;;;;23.78;28.25;100314.95;1738200;82;21034;-75
2021/05/06 12:40:27;;;;;;;5.22;0.78;;;;;;;23.70;28.32;100306.98;1738201;82;21375;-74
2021/05/06 12:42:55;;;;;;;1.45;0.60;;;;;;;23.65;28.31;100309.39;1737788;82;21041;-76
2021/05/06 12:45:25;;;;;;;3.52;1.07;;;;;;;23.56;27.73;100309.48;1738830;82;20967;-74
2021/05/06 12:47:54;;;;;;;1.32;0.80;;;;;;;23.44;27.46;100308.80;1738803;82;20978;-76
2021/05/06 12:50:29;;;;;;;3.65;1.85;;;;;;;23.33;28.18;100310.91;1739009;82;20926;-71
2021/05/06 12:53:08;;;;;;;7.72;1.10;;;;;;;23.23;28.64;100304.97;1739052;82;22421;-74
2021/05/06 12:55:41;;;;;;;2.47;0.88;;;;;;;23.15;29.22;100300.55;1738858;82;21033;-73
2021/05/06 12:58:14;;;;;;;;;;;;;;;23.12;29.56;100302.27;1742970;82;20934;-71
2021/05/06 13:00:58;;;;;;;1.62;1.00;;;;;;;23.06;29.21;100307.50;1740681;82;20573;-75
2021/05/06 13:03:33;;;;;;;5.40;0.90;;;;;;;22.92;29.92;100296.56;1740412;82;21482;-75
2021/05/06 13:06:04;;;;;;;7.72;1.17;;;;;;;22.82;30.05;100290.63;1739953;82;21218;-75
2021/05/06 13:08:40;;;;;;;2.12;0.85;;;;;;;22.80;30.30;100297.98;1738685;82;21374;-74
2021/05/06 13:11:10;;;;;;;2.25;0.80;;;;;;;22.75;29.55;100291.84;1737665;82;20971;-73
2021/05/06 13:13:49;;;;;;;3.85;1.02;;;;;;;22.67;29.65;100293.23;1737515;82;20955;-74
2021/05/06 13:16:39;;;;;;;0.98;0.70;;;;;;;22.58;29.63;100286.81;1737792;82;20974;-74
2021/05/06 13:19:14;;;;;;;3.58;0.93;;;;;;;22.46;29.67;100278.38;1756275;81;21372;-75
2021/05/06 13:21:52;;;;;;;4.90;1.30;;;;;;;22.41;29.59;100283.41;1755830;81;20963;-74
2021/05/06 13:24:24;;;;;;;2.15;1.20;;;;;;;22.31;30.11;100275.13;1756019;81;21003;-73
2021/05/06 13:26:52;;;;;;;3.20;1.00;;;;;;;22.23;30.26;100276.53;1756094;81;20950;-72
2021/05/06 13:29:23;;;;;;;3.20;1.10;;;;;;;22.16;30.37;100276.86;1756256;81;21385;-72
2021/05/06 13:31:51;;;;;;;3.37;0.88;;;;;;;22.13;30.62;100275.38;1756092;80;21474;-73
2021/05/06 13:34:24;;;;;;;4.40;0.60;;;;;;;22.10;31.08;100269.57;1756553;81;21102;-72
2021/05/06 13:37:03;;;;;;;8.75;1.00;;;;;;;22.05;30.91;100266.06;1737676;82;21376;-74
2021/05/06 13:39:34;;;;;;;3.60;0.95;;;;;;;22.01;30.80;100262.11;1759208;80;20958;-74
2021/05/06 13:42:02;;;;;;;11.93;1.60;;;;;;;21.97;30.72;100263.45;1759238;80;20954;-73
2021/05/06 13:44:32;;;;;;;5.40;1.47;;;;;;;21.95;30.85;100268.14;1759442;80;21175;-73
2021/05/06 13:47:06;;;;;;;11.90;2.50;;;;;;;21.91;31.41;100269.48;1759274;81;20966;-72
2021/05/06 13:49:36;;;;;;;2.72;0.80;;;;;;;21.91;31.60;100267.64;1759165;81;21025;-73
2021/05/06 13:52:05;;;;;;;4.90;1.02;;;;;;;21.93;30.93;100266.14;1759098;81;21002;-73
2021/05/06 13:54:33;;;;;;;3.17;1.05;;;;;;;21.95;31.01;100269.47;1759303;81;21352;-75
2021/05/06 13:57:03;;;;;;;8.08;3.37;;;;;;;21.96;31.69;100272.97;1759217;81;21036;-72
2021/05/06 13:59:31;;;;;;;2.60;1.30;;;;;;;21.98;31.73;100268.28;1759113;80;20966;-72
2021/05/06 14:02:01;;;;;;;7.30;1.25;;;;;;;22.02;31.59;100270.94;1759236;81;20935;-73
2021/05/06 14:04:29;;;;;;;3.50;1.57;;;;;;;22.06;31.61;100270.41;1759136;80;21140;-72
2021/05/06 14:06:57;;;;;;;5.15;1.55;;;;;;;22.07;31.34;100271.23;1759239;80;20971;-74
2021/05/06 14:09:26;;;;;;;3.50;1.30;;;;;;;22.09;31.30;100265.22;1759180;80;21198;-76
2021/05/06 14:11:54;;;;;;;3.98;1.52;;;;;;;22.11;31.34;100267.21;1759139;80;21022;-72
2021/05/06 14:17:10;;;;;;;2.17;1.50;;;;;;;22.12;31.31;100264.86;1813525;79;22590;-71
2021/05/06 14:19:41;;;;;;;2.77;1.45;;;;;;;22.09;32.22;100271.38;1755824;80;21017;-72
2021/05/06 14:22:09;;;;;;;11.50;1.98;;;;;;;22.10;32.46;100269.06;1784239;80;22685;-72
2021/05/06 14:24:37;;;;;;;4.03;1.32;;;;;;;22.12;32.59;100272.39;1784290;80;21057;-74
2021/05/06 14:27:06;;;;;;;7.20;1.32;;;;;;;22.11;32.78;100275.23;1784142;80;20930;-72
2021/05/06 14:29:35;;;;;;;6.83;1.60;;;;;;;22.09;33.14;100273.23;1784111;79;20946;-74
2021/05/06 14:32:03;;;;;;;6.12;1.77;;;;;;;22.08;33.08;100271.07;1784335;79;21312;-74
2021/05/06 14:34:35;;;;;;;5.55;1.85;;;;;;;22.07;33.41;100273.91;1784181;80;21195;-71
2021/05/06 14:37:06;;;;;;;9.33;1.25;;;;;;;22.02;33.44;100273.61;1784156;80;20926;-72
2021/05/06 14:39:35;;;;;;;3.00;1.75;;;;;;;21.96;33.61;100275.64;1784210;80;21328;-72
2021/05/06 14:42:03;;;;;;;12.15;2.02;;;;;;;21.88;33.18;100281.86;1784110;80;20918;-74
2021/05/06 14:44:33;;;;;;;4.45;1.65;;;;;;;21.80;33.91;100280.05;1784095;79;20922;-74
2021/05/06 14:47:01;;;;;;;7.12;1.77;;;;;;;21.70;33.94;100280.77;1784206;80;22111;-72
2021/05/06 14:49:30;;;;;;;3.50;1.50;;;;;;;21.60;33.99;100280.13;1784125;79;21594;-72
2021/05/06 14:51:58;;;;;;;4.22;1.60;;;;;;;21.52;33.92;100284.50;1784100;80;20990;-72
2021/05/06 14:54:26;;;;;;;5.78;2.33;;;;;;;21.43;34.09;100277.53;1784031;80;21490;-71
2021/05/06 14:56:55;;;;;;;6.50;1.32;;;;;;;21.37;34.03;100276.02;1784091;80;20938;-71
2021/05/06 14:59:23;;;;;;;4.53;1.42;;;;;;;21.32;34.71;100276.02;1784053;80;21230;-71
2021/05/06 15:01:52;;;;;;;5.95;1.50;;;;;;;21.28;34.92;100281.86;1783999;80;20954;-73
2021/05/06 15:04:20;;;;;;;4.62;1.47;;;;;;;21.20;35.15;100285.88;1784158;80;21017;-72
2021/05/06 15:06:48;;;;;;;3.27;1.57;;;;;;;21.13;35.52;100284.38;1784217;80;21021;-73
2021/05/06 15:09:19;;;;;;;4.35;1.22;;;;;;;21.05;35.45;100289.72;1784160;80;21407;-72
2021/05/06 15:11:48;;;;;;;9.45;1.45;;;;;;;20.97;35.28;100283.08;1784135;80;21200;-72
2021/05/06 15:14:17;;;;;;;6.03;2.25;;;;;;;20.88;35.27;100284.92;1784049;80;21028;-71